createdAt,value
2016-06-07T00:00:27.850Z,15.53
2016-06-07T00:01:27.650Z,15.51
2016-06-07T00:02:27.653Z,15.44
2016-06-07T00:03:41.766Z,15.38
2016-06-07T00:04:27.673Z,15.41
2016-06-07T00:05:27.552Z,15.46
2016-06-07T00:06:27.913Z,15.43
2016-06-07T00:07:27.682Z,15.43
2016-06-07T00:08:27.903Z,15.43
2016-06-07T00:09:27.702Z,15.28
2016-06-07T00:10:27.721Z,15.28
2016-06-07T00:11:27.271Z,15.38
2016-06-07T00:12:27.727Z,15.32
2016-06-07T00:13:27.792Z,15.32
2016-06-07T00:14:27.981Z,15.29
2016-06-07T00:15:27.750Z,15.28
2016-06-07T00:16:27.753Z,15.31
2016-06-07T00:17:27.771Z,15.29
2016-06-07T00:18:27.773Z,15.16
2016-06-07T00:19:27.979Z,15.19
2016-06-07T00:20:27.623Z,15.19
2016-06-07T00:21:28.001Z,15.19
2016-06-07T00:22:27.801Z,15.19
2016-06-07T00:23:27.803Z,15.17
2016-06-07T00:24:28.227Z,15.13
2016-06-07T00:25:27.824Z,15.14
2016-06-07T00:26:27.827Z,15.13
2016-06-07T00:27:27.860Z,15.11
2016-06-07T00:28:27.833Z,15.1
2016-06-07T00:29:27.851Z,15.03
2016-06-07T00:30:27.853Z,15.06
2016-06-07T00:31:28.246Z,15.03
2016-06-07T00:32:41.968Z,15.02
2016-06-07T00:33:27.877Z,14.99
2016-06-07T00:34:28.083Z,15.02
2016-06-07T00:35:28.538Z,15.02
2016-06-07T00:36:28.354Z,15.02
2016-06-07T00:37:28.527Z,14.95
2016-06-07T00:38:29.391Z,14.94
2016-06-07T00:39:27.893Z,14.98
2016-06-07T00:40:27.926Z,15.01
2016-06-07T00:41:28.117Z,15.02
2016-06-07T00:42:27.916Z,14.95
2016-06-07T00:43:27.435Z,14.92
2016-06-07T00:44:27.921Z,14.99
2016-06-07T00:45:41.862Z,14.92
2016-06-07T00:46:27.959Z,14.94
2016-06-07T00:47:28.196Z,14.92
2016-06-07T00:48:27.948Z,14.95
2016-06-07T00:49:27.685Z,14.89
2016-06-07T00:50:27.984Z,14.91
2016-06-07T00:51:27.987Z,14.94
2016-06-07T00:52:28.256Z,14.91
2016-06-07T00:53:42.478Z,14.86
2016-06-07T00:54:28.214Z,14.89
2016-06-07T00:56:28.033Z,14.86
2016-06-07T00:57:28.036Z,14.88
2016-06-07T00:58:28.225Z,14.77
2016-06-07T00:59:28.056Z,14.75
2016-06-07T01:00:28.075Z,14.89
2016-06-07T01:01:42.124Z,14.91
2016-06-07T01:02:28.095Z,14.81
2016-06-07T01:03:28.083Z,14.75
2016-06-07T01:04:28.100Z,14.8
2016-06-07T01:05:28.135Z,14.8
2016-06-07T01:06:28.090Z,14.73
2016-06-07T01:07:28.515Z,14.78
2016-06-07T01:08:28.299Z,14.78
2016-06-07T01:09:28.130Z,14.62
2016-06-07T01:10:27.946Z,14.62
2016-06-07T01:11:28.166Z,14.65
2016-06-07T01:12:28.106Z,14.73
2016-06-07T01:13:28.171Z,14.65
2016-06-07T01:14:28.362Z,14.57
2016-06-07T01:15:27.677Z,14.65
2016-06-07T01:16:27.695Z,14.62
2016-06-07T01:17:28.151Z,14.57
2016-06-07T01:18:27.701Z,14.62
2016-06-07T01:19:28.172Z,14.54
2016-06-07T01:20:28.003Z,14.57
2016-06-07T01:21:28.178Z,14.62
2016-06-07T01:22:28.368Z,14.6
2016-06-07T01:23:28.370Z,14.6
2016-06-07T01:24:28.201Z,14.51
2016-06-07T01:25:28.375Z,14.6
2016-06-07T01:26:28.582Z,14.57
2016-06-07T01:27:28.381Z,14.58
2016-06-07T01:28:28.447Z,14.52
2016-06-07T01:29:28.214Z,14.51
2016-06-07T01:30:28.217Z,14.54
2016-06-07T01:31:28.080Z,14.46
2016-06-07T01:32:28.223Z,14.51
2016-06-07T01:33:42.725Z,14.45
2016-06-07T01:34:28.260Z,14.45
2016-06-07T01:35:28.465Z,14.36
2016-06-07T01:36:28.844Z,14.37
2016-06-07T01:37:28.314Z,14.42
2016-06-07T01:38:28.255Z,14.35
2016-06-07T01:39:28.538Z,14.35
2016-06-07T01:40:28.291Z,14.37
2016-06-07T01:41:28.310Z,14.36
2016-06-07T01:42:28.000Z,14.36
2016-06-07T01:43:28.330Z,14.36
2016-06-07T01:44:28.286Z,14.35
2016-06-07T01:45:28.320Z,14.28
2016-06-07T01:46:42.401Z,14.28
2016-06-07T01:47:28.356Z,14.29
2016-06-07T01:48:28.176Z,14.22
2016-06-07T01:49:28.334Z,14.29
2016-06-07T01:50:28.820Z,14.18
2016-06-07T01:51:28.307Z,14.29
2016-06-07T01:52:28.417Z,14.24
2016-06-07T01:53:28.637Z,14.14
2016-06-07T01:54:28.426Z,14.06
2016-06-07T01:55:28.449Z,14.1
2016-06-07T01:56:28.458Z,14.07
2016-06-07T01:57:28.465Z,14.09
2016-06-07T01:58:28.364Z,13.99
2016-06-07T01:59:28.696Z,14.06
2016-06-07T02:00:28.497Z,14.02
2016-06-07T02:01:28.705Z,14.04
2016-06-07T02:02:28.507Z,14.04
2016-06-07T02:03:28.730Z,13.99
2016-06-07T02:04:28.546Z,14
2016-06-07T02:05:28.519Z,13.97
2016-06-07T02:06:29.600Z,13.99
2016-06-07T02:07:28.556Z,14.03
2016-06-07T02:08:28.967Z,14
2016-06-07T02:09:28.766Z,13.97
2016-06-07T02:10:28.769Z,13.95
2016-06-07T02:11:28.803Z,13.96
2016-06-07T02:12:28.775Z,13.96
2016-06-07T02:13:28.825Z,13.99
2016-06-07T02:14:28.797Z,13.91
2016-06-07T02:15:28.596Z,14.03
2016-06-07T02:16:28.818Z,13.96
2016-06-07T02:17:28.820Z,13.96
2016-06-07T02:18:28.621Z,13.87
2016-06-07T02:19:28.841Z,13.95
2016-06-07T02:20:28.469Z,13.92
2016-06-07T02:21:28.487Z,13.85
2016-06-07T02:22:28.849Z,13.91
2016-06-07T02:24:28.668Z,13.88
2016-06-07T02:25:28.670Z,13.87
2016-06-07T02:26:29.110Z,13.82
2016-06-07T02:27:28.676Z,13.89
2016-06-07T02:28:42.943Z,13.79
2016-06-07T02:29:28.696Z,13.81
2016-06-07T02:31:28.733Z,13.95
2016-06-07T02:32:28.689Z,13.81
2016-06-07T02:33:28.692Z,13.89
2016-06-07T02:34:28.710Z,13.85
2016-06-07T02:35:28.556Z,13.78
2016-06-07T02:36:29.122Z,13.82
2016-06-07T02:37:28.952Z,13.82
2016-06-07T02:38:28.486Z,13.79
2016-06-07T02:39:28.708Z,13.73
2016-06-07T02:40:28.726Z,13.73
2016-06-07T02:41:28.728Z,13.7
2016-06-07T02:42:28.731Z,13.73
2016-06-07T02:43:28.734Z,13.77
2016-06-07T02:44:28.736Z,13.69
2016-06-07T02:45:29.146Z,13.69
2016-06-07T02:46:28.774Z,13.73
2016-06-07T02:47:28.776Z,13.71
2016-06-07T02:48:28.763Z,13.73
2016-06-07T02:49:28.812Z,13.75
2016-06-07T02:50:28.785Z,13.71
2016-06-07T02:51:28.819Z,13.66
2016-06-07T02:52:28.820Z,13.75
2016-06-07T02:53:28.793Z,13.67
2016-06-07T02:54:28.810Z,13.66
2016-06-07T02:55:29.016Z,13.69
2016-06-07T02:56:29.019Z,13.57
2016-06-07T02:57:28.865Z,13.67
2016-06-07T02:58:28.853Z,13.57
2016-06-07T02:59:28.559Z,13.55
2016-06-07T03:00:29.030Z,13.66
2016-06-07T03:01:43.157Z,13.6
2016-06-07T03:02:57.004Z,13.64
2016-06-07T03:03:43.350Z,13.64
2016-06-07T03:04:28.884Z,13.54
2016-06-07T03:05:29.293Z,13.66
2016-06-07T03:06:28.858Z,13.66
2016-06-07T03:07:28.861Z,13.59
2016-06-07T03:08:42.958Z,13.6
2016-06-07T03:09:28.883Z,13.62
2016-06-07T03:10:29.088Z,13.63
2016-06-07T03:11:28.888Z,13.57
2016-06-07T03:12:28.921Z,13.6
2016-06-07T03:13:29.143Z,13.69
2016-06-07T03:14:29.349Z,13.62
2016-06-07T03:15:28.913Z,13.64
2016-06-07T03:16:28.932Z,13.6
2016-06-07T03:17:28.935Z,13.64
2016-06-07T03:18:28.953Z,13.69
2016-06-07T03:19:28.941Z,13.66
2016-06-07T03:20:29.162Z,13.6
2016-06-07T03:21:29.415Z,13.69
2016-06-07T03:22:29.011Z,13.69
2016-06-07T03:24:29.001Z,13.7
2016-06-07T03:25:28.957Z,13.69
2016-06-07T03:26:28.975Z,13.69
2016-06-07T03:27:29.181Z,13.78
2016-06-07T03:28:29.012Z,13.78
2016-06-07T03:29:29.436Z,13.91
2016-06-07T03:30:29.032Z,13.85
2016-06-07T03:31:29.004Z,13.85
2016-06-07T03:33:29.447Z,13.82
2016-06-07T03:34:29.028Z,13.87
2016-06-07T03:35:29.280Z,13.87
2016-06-07T03:36:43.126Z,13.87
2016-06-07T03:37:43.301Z,13.88
2016-06-07T03:38:29.038Z,13.84
2016-06-07T03:39:29.494Z,13.87
2016-06-07T03:40:29.106Z,13.82
2016-06-07T03:41:29.047Z,13.92
2016-06-07T03:42:29.049Z,13.84
2016-06-07T03:43:28.911Z,13.91
2016-06-07T03:44:29.133Z,13.88
2016-06-07T03:45:29.088Z,13.91
2016-06-07T03:47:29.297Z,14.02
2016-06-07T03:48:29.315Z,14.03
2016-06-07T03:49:29.099Z,14.03
2016-06-07T03:50:29.133Z,14.02
2016-06-07T03:51:29.636Z,13.99
2016-06-07T03:52:29.341Z,14.06
2016-06-07T03:53:29.126Z,14.04
2016-06-07T03:54:29.316Z,14.09
2016-06-07T03:55:29.131Z,14.12
2016-06-07T03:56:29.149Z,14.12
2016-06-07T03:57:29.136Z,14.15
2016-06-07T03:58:29.139Z,14.22
2016-06-07T03:59:29.157Z,14.29
2016-06-07T04:00:29.160Z,14.2
2016-06-07T04:01:29.179Z,14.27
2016-06-07T04:02:29.181Z,14.22
2016-06-07T04:03:29.215Z,14.21
2016-06-07T04:04:29.264Z,14.32
2016-06-07T04:05:29.189Z,14.36
2016-06-07T04:06:29.207Z,14.35
2016-06-07T04:07:29.367Z,14.39
2016-06-07T04:08:29.431Z,14.32
2016-06-07T04:09:29.200Z,14.4
2016-06-07T04:10:29.422Z,14.43
2016-06-07T04:11:29.236Z,14.47
2016-06-07T04:12:29.427Z,14.54
2016-06-07T04:13:29.523Z,14.57
2016-06-07T04:14:29.448Z,14.52
2016-06-07T04:15:29.278Z,14.57
2016-06-07T04:16:29.296Z,14.58
2016-06-07T04:17:29.253Z,14.61
2016-06-07T04:18:29.678Z,14.6
2016-06-07T04:19:29.274Z,14.64
2016-06-07T04:20:29.479Z,14.64
2016-06-07T04:21:29.294Z,14.62
2016-06-07T04:22:29.875Z,14.61
2016-06-07T04:23:29.753Z,14.68
2016-06-07T04:24:29.569Z,14.77
2016-06-07T04:25:29.337Z,14.75
2016-06-07T04:26:29.307Z,14.75
2016-06-07T04:27:29.327Z,14.78
2016-06-07T04:28:29.376Z,14.84
2016-06-07T04:29:29.332Z,14.81
2016-06-07T04:30:29.334Z,14.84
2016-06-07T04:31:29.541Z,14.78
2016-06-07T04:32:29.356Z,14.8
2016-06-07T04:33:29.779Z,14.91
2016-06-07T04:34:29.580Z,15.02
2016-06-07T04:35:29.566Z,14.98
2016-06-07T04:36:29.585Z,15.06
2016-06-07T04:37:30.150Z,15.07
2016-06-07T04:38:29.434Z,15.07
2016-06-07T04:39:29.608Z,15.11
2016-06-07T04:40:29.612Z,15.13
2016-06-07T04:41:29.426Z,15.2
2016-06-07T04:42:29.429Z,15.23
2016-06-07T04:43:29.478Z,15.16
2016-06-07T04:44:29.435Z,15.2
2016-06-07T04:45:29.436Z,15.25
2016-06-07T04:46:29.439Z,15.28
2016-06-07T04:47:29.646Z,15.31
2016-06-07T04:48:29.461Z,15.25
2016-06-07T04:49:29.464Z,15.2
2016-06-07T04:50:29.685Z,15.29
2016-06-07T04:51:29.875Z,15.32
2016-06-07T04:52:30.315Z,15.28
2016-06-07T04:53:29.537Z,15.32
2016-06-07T04:54:29.915Z,15.35
2016-06-07T04:55:29.511Z,15.34
2016-06-07T04:56:29.513Z,15.36
2016-06-07T04:57:29.532Z,15.44
2016-06-07T04:58:29.738Z,15.46
2016-06-07T04:59:29.538Z,15.46
2016-06-07T05:00:29.977Z,15.53
2016-06-07T05:01:29.559Z,15.5
2016-06-07T05:02:29.592Z,15.62
2016-06-07T05:03:29.767Z,15.53
2016-06-07T05:04:29.567Z,15.57
2016-06-07T05:05:43.648Z,15.56
2016-06-07T05:06:29.807Z,15.67
2016-06-07T05:07:30.028Z,15.69
2016-06-07T05:08:29.843Z,15.68
2016-06-07T05:09:29.626Z,15.74
2016-06-07T05:10:29.817Z,15.71
2016-06-07T05:11:29.836Z,15.82
2016-06-07T05:12:30.041Z,15.78
2016-06-07T05:13:29.934Z,15.92
2016-06-07T05:14:29.828Z,15.92
2016-06-07T05:15:29.643Z,15.9
2016-06-07T05:16:30.067Z,15.83
2016-06-07T05:17:29.772Z,15.92
2016-06-07T05:18:30.073Z,15.97
2016-06-07T05:19:29.700Z,15.97
2016-06-07T05:20:29.688Z,16.02
2016-06-07T05:22:30.491Z,16.07
2016-06-07T05:23:29.914Z,16.07
2016-06-07T05:24:29.777Z,16.17
2016-06-07T05:25:29.935Z,16.15
2016-06-07T05:26:29.751Z,16.14
2016-06-07T05:27:29.597Z,16.2
2016-06-07T05:28:29.757Z,16.25
2016-06-07T05:29:29.977Z,16.25
2016-06-07T05:30:29.761Z,16.35
2016-06-07T05:31:29.967Z,16.39
2016-06-07T05:32:29.813Z,16.39
2016-06-07T05:33:43.926Z,16.39
2016-06-07T05:34:29.788Z,16.42
2016-06-07T05:35:29.807Z,16.41
2016-06-07T05:36:30.012Z,16.5
2016-06-07T05:37:29.561Z,16.52
2016-06-07T05:38:29.830Z,16.53
2016-06-07T05:39:30.270Z,16.56
2016-06-07T05:40:29.898Z,16.61
2016-06-07T05:41:29.978Z,16.58
2016-06-07T05:42:44.419Z,16.67
2016-06-07T05:43:30.140Z,16.57
2016-06-07T05:44:29.878Z,16.71
2016-06-07T05:45:30.505Z,16.76
2016-06-07T05:46:29.914Z,16.66
2016-06-07T05:47:29.916Z,16.68
2016-06-07T05:48:29.919Z,16.76
2016-06-07T05:49:29.953Z,16.75
2016-06-07T05:50:29.924Z,16.76
2016-06-07T05:51:29.943Z,16.79
2016-06-07T05:52:30.461Z,16.76
2016-06-07T05:53:30.152Z,16.85
2016-06-07T05:54:29.983Z,16.88
2016-06-07T05:55:30.000Z,17.01
2016-06-07T05:56:29.972Z,16.97
2016-06-07T05:57:30.022Z,16.98
2016-06-07T05:58:30.369Z,16.94
2016-06-07T05:59:30.011Z,17.07
2016-06-07T06:00:30.013Z,16.98
2016-06-07T06:01:30.033Z,17.12
2016-06-07T06:02:30.082Z,17.15
2016-06-07T06:03:30.069Z,17.19
2016-06-07T06:04:30.040Z,17.19
2016-06-07T06:05:30.434Z,17.21
2016-06-07T06:06:30.077Z,17.18
2016-06-07T06:07:30.127Z,17.25
2016-06-07T06:08:30.332Z,17.26
2016-06-07T06:09:30.038Z,17.36
2016-06-07T06:10:30.120Z,17.33
2016-06-07T06:11:30.356Z,17.37
2016-06-07T06:12:30.531Z,17.43
2016-06-07T06:13:30.190Z,17.41
2016-06-07T06:14:29.645Z,17.43
2016-06-07T06:15:30.164Z,17.54
2016-06-07T06:16:30.150Z,17.49
2016-06-07T06:17:30.201Z,17.62
2016-06-07T06:18:30.406Z,17.58
2016-06-07T06:19:30.190Z,17.68
2016-06-07T06:20:30.208Z,17.59
2016-06-07T06:21:30.055Z,17.68
2016-06-07T06:22:30.214Z,17.74
2016-06-07T06:23:30.248Z,17.71
2016-06-07T06:24:30.235Z,17.68
2016-06-07T06:25:30.285Z,17.72
2016-06-07T06:26:30.475Z,17.75
2016-06-07T06:27:30.321Z,17.7
2016-06-07T06:28:43.918Z,17.78
2016-06-07T06:29:30.357Z,17.82
2016-06-07T06:30:30.580Z,17.95
2016-06-07T06:31:30.301Z,17.87
2016-06-07T06:32:30.506Z,17.99
2016-06-07T06:33:30.525Z,18.02
2016-06-07T06:34:30.527Z,18.07
2016-06-07T06:35:30.170Z,18.08
2016-06-07T06:36:30.548Z,18.14
2016-06-07T06:37:30.863Z,18.15
2016-06-07T06:38:30.570Z,18.21
2016-06-07T06:39:30.368Z,18.18
2016-06-07T06:40:30.387Z,18.27
2016-06-07T06:41:30.405Z,18.18
2016-06-07T06:42:30.393Z,18.26
2016-06-07T06:43:30.271Z,18.33
2016-06-07T06:45:30.619Z,18.33
2016-06-07T06:46:30.420Z,18.42
2016-06-07T06:47:30.422Z,18.44
2016-06-07T06:48:30.439Z,18.45
2016-06-07T06:49:30.459Z,18.57
2016-06-07T06:50:30.461Z,18.52
2016-06-07T06:51:30.042Z,18.52
2016-06-07T06:52:30.560Z,18.6
2016-06-07T06:53:44.876Z,18.57
2016-06-07T06:54:30.550Z,18.57
2016-06-07T06:55:45.021Z,18.72
2016-06-07T06:56:30.603Z,18.67
2016-06-07T06:57:30.792Z,18.72
2016-06-07T06:58:30.795Z,18.75
2016-06-07T06:59:30.594Z,18.75
2016-06-07T07:00:30.128Z,18.73
2016-06-07T07:01:30.803Z,18.78
2016-06-07T07:02:30.791Z,18.9
2016-06-07T07:03:30.621Z,18.9
2016-06-07T07:04:30.640Z,18.85
2016-06-07T07:05:30.814Z,18.87
2016-06-07T07:06:30.645Z,18.9
2016-06-07T07:07:31.476Z,18.94
2016-06-07T07:08:31.165Z,18.94
2016-06-07T07:09:30.684Z,18.94
2016-06-07T07:10:30.671Z,18.94
2016-06-07T07:11:30.673Z,19.04
2016-06-07T07:12:31.254Z,18.99
2016-06-07T07:13:30.789Z,18.92
2016-06-07T07:14:30.776Z,19.07
2016-06-07T07:15:30.809Z,19.14
2016-06-07T07:16:30.734Z,19.08
2016-06-07T07:17:30.753Z,19.13
2016-06-07T07:18:30.958Z,19.07
2016-06-07T07:19:30.836Z,19.14
2016-06-07T07:20:30.807Z,19.19
2016-06-07T07:21:30.826Z,19.21
2016-06-07T07:22:31.047Z,19.16
2016-06-07T07:23:44.877Z,19.25
2016-06-07T07:24:30.819Z,19.28
2016-06-07T07:25:30.821Z,19.31
2016-06-07T07:26:30.683Z,19.18
2016-06-07T07:27:44.919Z,19.28
2016-06-07T07:28:31.110Z,19.33
2016-06-07T07:29:30.925Z,19.36
2016-06-07T07:30:31.522Z,19.4
2016-06-07T07:31:30.883Z,19.43
2016-06-07T07:32:30.918Z,19.46
2016-06-07T07:33:30.749Z,19.5
2016-06-07T07:35:30.769Z,19.5
2016-06-07T07:36:30.585Z,19.58
2016-06-07T07:37:31.807Z,19.61
2016-06-07T07:38:30.965Z,19.62
2016-06-07T07:39:31.186Z,19.73
2016-06-07T07:40:31.189Z,19.69
2016-06-07T07:41:30.990Z,19.76
2016-06-07T07:42:31.023Z,19.77
2016-06-07T07:43:31.010Z,19.83
2016-06-07T07:44:31.231Z,19.8
2016-06-07T07:45:31.031Z,19.88
2016-06-07T07:46:31.470Z,19.95
2016-06-07T07:47:31.240Z,19.92
2016-06-07T07:48:31.070Z,19.94
2016-06-07T07:49:31.072Z,20.02
2016-06-07T07:50:31.309Z,20.11
2016-06-07T07:51:31.203Z,20.02
2016-06-07T07:52:31.753Z,20.1
2016-06-07T07:53:31.364Z,20.16
2016-06-07T07:54:31.195Z,20.16
2016-06-07T07:55:45.448Z,20.16
2016-06-07T07:56:31.607Z,20.18
2016-06-07T07:57:31.407Z,20.24
2016-06-07T07:58:31.206Z,20.28
2016-06-07T07:59:31.038Z,20.28
2016-06-07T08:00:31.430Z,20.35
2016-06-07T08:01:31.418Z,20.35
2016-06-07T08:02:31.296Z,20.42
2016-06-07T08:03:31.266Z,20.35
2016-06-07T08:04:31.457Z,20.43
2016-06-07T08:05:31.490Z,20.51
2016-06-07T08:06:31.321Z,20.51
2016-06-07T08:07:31.763Z,20.47
2016-06-07T08:08:45.374Z,20.61
2016-06-07T08:09:31.330Z,20.58
2016-06-07T08:10:31.520Z,20.7
2016-06-07T08:11:31.085Z,20.7
2016-06-07T08:12:31.588Z,20.67
2016-06-07T08:13:31.403Z,20.88
2016-06-07T08:14:31.453Z,20.74
2016-06-07T08:15:31.720Z,20.89
2016-06-07T08:16:31.223Z,20.97
2016-06-07T08:17:31.414Z,20.99
2016-06-07T08:18:31.448Z,20.99
2016-06-07T08:19:31.748Z,21.01
2016-06-07T08:20:31.672Z,21.03
2016-06-07T08:21:31.142Z,21.03
2016-06-07T08:22:31.708Z,21.01
2016-06-07T08:23:31.462Z,21.14
2016-06-07T08:24:31.558Z,21.14
2016-06-07T08:25:31.232Z,21.14
2016-06-07T08:26:31.516Z,21.22
2016-06-07T08:27:31.722Z,21.28
2016-06-07T08:28:31.521Z,21.22
2016-06-07T08:29:32.056Z,21.34
2016-06-07T08:30:31.636Z,21.29
2016-06-07T08:31:31.608Z,21.31
2016-06-07T08:32:31.594Z,21.4
2016-06-07T08:33:31.613Z,21.47
2016-06-07T08:34:31.677Z,21.46
2016-06-07T08:35:31.837Z,21.47
2016-06-07T08:36:31.638Z,21.46
2016-06-07T08:37:31.640Z,21.52
2016-06-07T08:38:32.048Z,21.49
2016-06-07T08:39:46.145Z,21.58
2016-06-07T08:40:31.725Z,21.64
2016-06-07T08:41:31.713Z,21.61
2016-06-07T08:42:31.778Z,21.61
2016-06-07T08:43:31.734Z,21.69
2016-06-07T08:44:31.736Z,21.69
2016-06-07T08:45:31.739Z,21.65
2016-06-07T08:46:31.976Z,21.71
2016-06-07T08:47:31.682Z,21.8
2016-06-07T08:48:45.919Z,21.83
2016-06-07T08:49:32.031Z,21.82
2016-06-07T08:50:31.845Z,21.82
2016-06-07T08:51:31.865Z,21.91
2016-06-07T08:52:33.070Z,22.02
2016-06-07T08:53:31.901Z,22
2016-06-07T08:54:32.231Z,21.96
2016-06-07T08:55:31.859Z,22.02
2016-06-07T08:56:32.472Z,21.99
2016-06-07T08:57:32.147Z,22.02
2016-06-07T08:58:32.149Z,22.03
2016-06-07T08:59:31.980Z,22.07
2016-06-07T09:00:46.030Z,22.12
2016-06-07T09:01:31.938Z,22.17
2016-06-07T09:02:31.957Z,22.15
2016-06-07T09:03:31.960Z,22.25
2016-06-07T09:04:32.212Z,22.24
2016-06-07T09:05:31.996Z,22.21
2016-06-07T09:06:32.202Z,22.22
2016-06-07T09:07:33.110Z,22.31
2016-06-07T09:08:32.348Z,22.27
2016-06-07T09:09:32.054Z,22.39
2016-06-07T09:10:32.259Z,22.33
2016-06-07T09:11:32.060Z,22.31
2016-06-07T09:12:32.077Z,22.43
2016-06-07T09:13:32.127Z,22.42
2016-06-07T09:14:31.676Z,22.46
2016-06-07T09:15:31.976Z,22.47
2016-06-07T09:16:32.135Z,22.55
2016-06-07T09:17:32.153Z,22.54
2016-06-07T09:18:32.265Z,22.47
2016-06-07T09:19:32.221Z,22.46
2016-06-07T09:20:32.208Z,22.49
2016-06-07T09:21:32.634Z,22.51
2016-06-07T09:22:32.417Z,22.6
2016-06-07T09:23:32.294Z,22.52
2016-06-07T09:24:32.234Z,22.62
2016-06-07T09:25:32.487Z,22.62
2016-06-07T09:26:32.272Z,22.72
2016-06-07T09:27:32.493Z,22.58
2016-06-07T09:28:32.823Z,22.67
2016-06-07T09:29:32.513Z,22.64
2016-06-07T09:30:32.438Z,22.7
2016-06-07T09:31:32.817Z,22.72
2016-06-07T09:32:32.413Z,22.75
2016-06-07T09:33:32.369Z,22.68
2016-06-07T09:34:32.622Z,22.75
2016-06-07T09:35:32.624Z,22.67
2016-06-07T09:36:32.626Z,22.82
2016-06-07T09:37:32.457Z,22.79
2016-06-07T09:38:32.804Z,22.82
2016-06-07T09:39:32.431Z,22.83
2016-06-07T09:40:32.652Z,22.92
2016-06-07T09:41:32.655Z,22.92
2016-06-07T09:42:32.486Z,22.9
2016-06-07T09:43:32.676Z,23.02
2016-06-07T09:44:32.570Z,22.91
2016-06-07T09:45:46.603Z,23.01
2016-06-07T09:46:32.576Z,23.05
2016-06-07T09:47:32.593Z,23.04
2016-06-07T09:48:33.002Z,23.1
2016-06-07T09:49:46.646Z,23.13
2016-06-07T09:50:32.601Z,23.15
2016-06-07T09:51:32.604Z,23.16
2016-06-07T09:52:32.638Z,23.23
2016-06-07T09:53:32.984Z,23.25
2016-06-07T09:54:32.878Z,23.33
2016-06-07T09:55:32.865Z,23.36
2016-06-07T09:56:32.867Z,23.4
2016-06-07T09:57:32.667Z,23.51
2016-06-07T09:58:32.904Z,23.5
2016-06-07T09:59:32.719Z,23.63
2016-06-07T10:00:32.925Z,23.57
2016-06-07T10:01:32.944Z,23.66
2016-06-07T10:02:47.086Z,23.65
2016-06-07T10:03:46.886Z,23.63
2016-06-07T10:04:33.030Z,23.58
2016-06-07T10:05:32.892Z,23.73
2016-06-07T10:06:33.004Z,23.66
2016-06-07T10:07:32.944Z,23.76
2016-06-07T10:08:33.166Z,23.73
2016-06-07T10:09:46.778Z,23.85
2016-06-07T10:10:32.905Z,23.93
2016-06-07T10:11:32.876Z,23.97
2016-06-07T10:12:32.457Z,23.94
2016-06-07T10:13:33.366Z,24
2016-06-07T10:14:32.932Z,24.06
2016-06-07T10:15:32.935Z,24.09
2016-06-07T10:16:47.031Z,24.15
2016-06-07T10:17:47.065Z,24.2
2016-06-07T10:18:43.115Z,24.24
2016-06-07T10:19:47.478Z,24.25
2016-06-07T10:20:33.025Z,24.37
2016-06-07T10:21:33.043Z,24.37
2016-06-07T10:22:33.045Z,24.49
2016-06-07T10:23:47.504Z,24.61
2016-06-07T10:24:33.082Z,24.5
2016-06-07T10:25:33.349Z,24.61
2016-06-07T10:26:33.103Z,24.64
2016-06-07T10:27:33.309Z,24.76
2016-06-07T10:28:33.562Z,24.8
2016-06-07T10:29:33.142Z,24.77
2016-06-07T10:30:33.145Z,24.73
2016-06-07T10:31:33.178Z,24.84
2016-06-07T10:32:33.213Z,24.81
2016-06-07T10:33:33.403Z,24.77
2016-06-07T10:34:47.331Z,24.83
2016-06-07T10:35:33.237Z,24.83
2016-06-07T10:36:33.254Z,24.95
2016-06-07T10:37:33.320Z,24.98
2016-06-07T10:38:33.416Z,25.06
2016-06-07T10:39:33.529Z,25.08
2016-06-07T10:41:33.331Z,25.25
2016-06-07T10:42:33.553Z,25.38
2016-06-07T10:43:47.433Z,25.33
2016-06-07T10:44:33.792Z,25.38
2016-06-07T10:45:33.420Z,25.45
2016-06-07T10:46:33.422Z,25.52
2016-06-07T10:47:33.425Z,25.57
2016-06-07T10:48:33.693Z,25.67
2016-06-07T10:49:33.650Z,25.69
2016-06-07T10:50:47.780Z,25.83
2016-06-07T10:51:47.547Z,25.83
2016-06-07T10:52:33.532Z,25.99
2016-06-07T10:53:33.738Z,25.98
2016-06-07T10:54:33.599Z,26.01
2016-06-07T10:55:33.772Z,26.12
2016-06-07T10:56:33.149Z,26.13
2016-06-07T10:57:33.619Z,26.17
2016-06-07T10:58:33.856Z,26.26
2016-06-07T10:59:33.874Z,26.35
2016-06-07T11:00:33.899Z,26.28
2016-06-07T11:01:33.719Z,26.35
2016-06-07T11:02:48.048Z,26.35
2016-06-07T11:03:33.767Z,26.47
2016-06-07T11:04:33.791Z,26.55
2016-06-07T11:05:33.671Z,26.52
2016-06-07T11:06:33.831Z,26.55
2016-06-07T11:07:33.383Z,26.62
2016-06-07T11:08:35.013Z,26.65
2016-06-07T11:09:33.893Z,26.75
2016-06-07T11:10:33.755Z,26.8
2016-06-07T11:11:33.915Z,26.81
2016-06-07T11:12:34.137Z,26.87
2016-06-07T11:13:34.204Z,26.87
2016-06-07T11:14:33.971Z,26.89
2016-06-07T11:15:33.991Z,26.94
2016-06-07T11:16:34.197Z,26.99
2016-06-07T11:17:33.560Z,26.92
2016-06-07T11:18:33.625Z,27.03
2016-06-07T11:19:33.784Z,27.07
2016-06-07T11:20:33.944Z,27.09
2016-06-07T11:21:34.103Z,27.09
2016-06-07T11:22:34.120Z,27.07
2016-06-07T11:23:34.514Z,27.13
2016-06-07T11:24:34.172Z,27.03
2016-06-07T11:25:34.160Z,27.06
2016-06-07T11:26:34.272Z,27
2016-06-07T11:28:48.499Z,26.91
2016-06-07T11:29:34.499Z,26.92
2016-06-07T11:30:34.252Z,26.92
2016-06-07T11:31:34.269Z,26.95
2016-06-07T11:32:34.492Z,26.88
2016-06-07T11:33:34.697Z,26.94
2016-06-07T11:34:34.513Z,26.81
2016-06-07T11:35:34.343Z,26.88
2016-06-07T11:36:34.549Z,26.81
2016-06-07T11:37:34.614Z,26.82
2016-06-07T11:38:34.257Z,26.82
2016-06-07T11:39:34.401Z,26.84
2016-06-07T11:40:34.465Z,26.81
2016-06-07T11:41:48.549Z,26.85
2016-06-07T11:42:34.440Z,26.82
2016-06-07T11:43:34.881Z,26.92
2016-06-07T11:44:34.680Z,26.92
2016-06-07T11:45:34.698Z,26.92
2016-06-07T11:46:34.545Z,26.91
2016-06-07T11:47:34.531Z,26.91
2016-06-07T11:48:48.615Z,27.04
2016-06-07T11:49:34.568Z,27.06
2016-06-07T11:50:34.571Z,27.06
2016-06-07T11:51:48.670Z,27.04
2016-06-07T11:52:34.811Z,27.14
2016-06-07T11:53:34.658Z,27.09
2016-06-07T11:54:34.644Z,27.21
2016-06-07T11:55:34.663Z,27.22
2016-06-07T11:56:34.680Z,27.28
2016-06-07T11:57:34.887Z,27.28
2016-06-07T11:58:35.202Z,27.28
2016-06-07T11:59:34.939Z,27.29
2016-06-07T12:00:34.755Z,27.34
2016-06-07T12:01:34.991Z,27.44
2016-06-07T12:02:35.025Z,27.28
2016-06-07T12:03:35.246Z,27.39
2016-06-07T12:04:34.812Z,27.32
2016-06-07T12:05:34.846Z,27.37
2016-06-07T12:06:35.099Z,27.43
2016-06-07T12:07:34.711Z,27.4
2016-06-07T12:08:35.213Z,27.39
2016-06-07T12:09:34.451Z,27.39
2016-06-07T12:10:34.921Z,27.29
2016-06-07T12:11:34.956Z,27.43
2016-06-07T12:12:35.161Z,27.37
2016-06-07T12:13:34.976Z,27.55
2016-06-07T12:14:35.214Z,27.49
2016-06-07T12:15:35.029Z,27.67
2016-06-07T12:16:35.001Z,27.81
2016-06-07T12:17:35.034Z,27.79
2016-06-07T12:18:35.334Z,27.87
2016-06-07T12:19:35.118Z,27.99
2016-06-07T12:20:49.186Z,27.99
2016-06-07T12:21:35.326Z,27.94
2016-06-07T12:22:35.345Z,28.02
2016-06-07T12:23:35.645Z,28.02
2016-06-07T12:24:35.100Z,28.09
2016-06-07T12:25:35.181Z,28.11
2016-06-07T12:26:35.028Z,28.11
2016-06-07T12:27:35.217Z,28.14
2016-06-07T12:28:35.220Z,28.14
2016-06-07T12:29:35.707Z,28.15
2016-06-07T12:30:35.272Z,28.06
2016-06-07T12:31:35.306Z,28.21
2016-06-07T12:32:35.309Z,28
2016-06-07T12:33:35.311Z,28.04
2016-06-07T12:34:35.924Z,28
2016-06-07T12:35:35.551Z,28.04
2016-06-07T12:36:35.366Z,28.06
2016-06-07T12:37:35.619Z,28
2016-06-07T12:38:35.403Z,28
2016-06-07T12:39:37.156Z,27.96
2016-06-07T12:40:35.455Z,27.96
2016-06-07T12:42:35.477Z,28.02
2016-06-07T12:43:35.495Z,28.02
2016-06-07T12:44:35.732Z,28.03
2016-06-07T12:45:49.596Z,28.09
2016-06-07T12:46:35.534Z,28.09
2016-06-07T12:47:35.553Z,27.97
2016-06-07T12:48:35.806Z,28.04
2016-06-07T12:49:35.590Z,28.06
2016-06-07T12:50:35.811Z,28.04
2016-06-07T12:51:35.860Z,27.88
2016-06-07T12:52:35.660Z,27.92
2016-06-07T12:53:36.365Z,27.85
2016-06-07T12:54:36.431Z,27.87
2016-06-07T12:55:35.902Z,27.9
2016-06-07T12:56:35.905Z,27.79
2016-06-07T12:57:35.736Z,27.9
2016-06-07T12:58:35.754Z,27.82
2016-06-07T12:59:35.975Z,27.77
2016-06-07T13:00:36.025Z,27.81
2016-06-07T13:01:35.793Z,27.72
2016-06-07T13:02:36.014Z,27.78
2016-06-07T13:03:35.830Z,27.85
2016-06-07T13:04:36.036Z,27.7
2016-06-07T13:05:35.695Z,27.74
2016-06-07T13:06:35.900Z,27.79
2016-06-07T13:07:36.106Z,27.82